Terminal Aerodrome Forecast
Issued by NWS Charleston, WV

Current Version | Previous Version | Graphics & Text | Print | Product List | Glossary Off
Versions: 1 2 3 4 5 6 7 8 9 10 11 12 13 14 15 16 17 18 19 20 21 22

000
FTUS41 KRLX 201100
TAFHTS
TAF
KHTS 201130Z 2012/2112 00000KT P6SM SCT200
     FM201600 22006KT P6SM BKN130
     FM201900 21009G17KT P6SM BKN090
     FM210000 22006KT P6SM BKN100
     FM210300 23005KT P6SM BKN060=

USA.gov is the U.S. government's official web portal to all federal, state and local government web resources and services.